Time;durP1;ratioP1;P1;durP2;ratioP2;P2;SDS_P1;SDS_P2;PMS_P1;PMS_P2;Temp;Humidity;BMP_temperature;BMP_pressure;BME280_temperature;BME280_humidity;BME280_pressure;Samples;Min_cycle;Max_cycle;Signal;HPM_P1;HPM_P2
2022/07/17 00:02:11;;;;;;;10.50;7.55;;;;;;;20.28;76.47;97170.22;5024938;28;20049;-66
2022/07/17 00:04:38;;;;;;;11.20;7.90;;;;;;;20.50;75.59;97170.63;5026235;28;20057;-59
2022/07/17 00:07:05;;;;;;;14.13;8.77;;;;;;;20.65;74.92;97177.56;5026157;28;20059;-67
2022/07/17 00:09:31;;;;;;;15.88;9.57;;;;;;;20.42;74.17;97129.78;5025999;28;20400;-57
2022/07/17 00:11:58;;;;;;;37.35;17.30;;;;;;;20.51;75.01;97183.47;5026200;28;20041;-66
2022/07/17 00:14:25;;;;;;;17.80;9.88;;;;;;;19.82;74.98;97059.81;5025959;28;20057;-66
2022/07/17 00:16:53;;;;;;;9.70;7.38;;;;;;;20.41;74.90;97145.06;5025950;28;20069;-58
2022/07/17 00:19:20;;;;;;;7.35;6.60;;;;;;;20.80;72.94;97173.22;5025985;28;20049;-58
2022/07/17 00:21:47;;;;;;;7.65;6.78;;;;;;;20.89;71.49;97165.78;5025646;28;20077;-57
2022/07/17 00:24:19;;;;;;;10.85;7.15;;;;;;;20.63;74.04;97165.91;5024894;28;20057;-65
2022/07/17 00:26:51;;;;;;;18.38;10.65;;;;;;;20.72;73.61;97168.97;5025836;28;20057;-65
2022/07/17 00:29:19;;;;;;;6.57;5.90;;;;;;;20.83;72.47;97166.72;5024298;28;20052;-65
2022/07/17 00:31:46;;;;;;;8.27;6.32;;;;;;;20.88;71.58;97152.13;5025505;28;20060;-66
2022/07/17 00:34:13;;;;;;;7.70;6.32;;;;;;;20.70;70.63;97123.56;5024076;28;20049;-58
2022/07/17 00:36:40;;;;;;;7.35;5.68;;;;;;;20.95;70.92;97163.25;5025289;28;20053;-65
2022/07/17 00:39:06;;;;;;;6.47;5.97;;;;;;;20.92;71.14;97164.91;5025521;28;20059;-64
2022/07/17 00:41:33;;;;;;;8.05;6.20;;;;;;;20.82;71.02;97151.84;5023677;28;20103;-58
2022/07/17 00:44:05;;;;;;;7.05;5.60;;;;;;;20.51;71.25;97101.84;5025726;28;20053;-66
2022/07/17 00:46:32;;;;;;;6.00;5.45;;;;;;;20.87;71.36;97173.06;5025007;28;20406;-59
2022/07/17 00:48:59;;;;;;;7.47;6.03;;;;;;;20.85;71.51;97172.69;5012255;28;20432;-58
2022/07/17 00:51:26;;;;;;;6.13;5.22;;;;;;;20.51;71.74;97135.63;5005431;28;20061;-58
2022/07/17 00:53:55;;;;;;;6.40;5.90;;;;;;;20.50;71.29;97119.97;5005535;28;20156;-58
2022/07/17 00:56:22;;;;;;;6.35;5.85;;;;;;;20.56;71.68;97149.19;5003488;28;20093;-66
2022/07/17 00:58:50;;;;;;;6.03;5.32;;;;;;;20.61;71.66;97165.59;5005572;28;20115;-66
2022/07/17 01:01:18;;;;;;;7.20;6.50;;;;;;;20.00;75.95;97184.00;5005654;28;20505;-65
2022/07/17 01:03:45;;;;;;;6.97;6.28;;;;;;;20.01;76.21;97182.78;5005063;28;20054;-65
2022/07/17 01:06:12;;;;;;;10.52;6.70;;;;;;;20.05;75.99;97183.50;5005390;28;20531;-67
2022/07/17 01:08:39;;;;;;;7.38;6.68;;;;;;;20.16;75.52;97184.13;5005068;28;20523;-58
2022/07/17 01:11:08;;;;;;;7.00;6.25;;;;;;;19.85;74.78;97112.38;5003483;28;20536;-66
2022/07/17 01:13:35;;;;;;;6.57;6.00;;;;;;;20.07;74.83;97164.19;5005296;28;20053;-66
2022/07/17 01:16:03;;;;;;;7.18;6.57;;;;;;;20.26;75.08;97188.78;5005104;28;20064;-65
2022/07/17 01:18:30;;;;;;;9.13;6.70;;;;;;;20.05;74.54;97138.50;5005246;28;20050;-58
2022/07/17 01:21:06;;;;;;;7.15;5.97;;;;;;;19.83;74.16;97092.31;5003491;28;20050;-61
2022/07/17 01:23:33;;;;;;;6.45;5.68;;;;;;;20.36;73.95;97179.34;5003648;28;20535;-66
2022/07/17 01:26:00;;;;;;;6.63;6.00;;;;;;;20.46;73.48;97178.34;5004775;28;20491;-65
2022/07/17 01:28:27;;;;;;;6.93;6.22;;;;;;;20.50;73.24;97193.16;5004849;28;20058;-58
2022/07/17 01:30:54;;;;;;;6.30;5.70;;;;;;;20.55;72.49;97198.28;5003314;28;20054;-66
2022/07/17 01:33:23;;;;;;;6.13;5.68;;;;;;;20.54;72.52;97199.50;5005179;28;20552;-57
2022/07/17 01:35:50;;;;;;;7.05;6.35;;;;;;;20.62;71.99;97178.41;5003327;28;20056;-66
2022/07/17 01:38:17;;;;;;;6.15;5.65;;;;;;;20.10;72.78;97124.75;5004812;28;20058;-58
2022/07/17 01:40:44;;;;;;;7.30;5.80;;;;;;;20.45;72.70;97176.75;5003485;28;20064;-58
2022/07/17 01:43:11;;;;;;;6.32;5.68;;;;;;;20.38;73.01;97174.88;5003299;28;20053;-66
2022/07/17 01:45:38;;;;;;;6.05;5.45;;;;;;;20.41;72.90;97178.84;5004895;28;20500;-58
2022/07/17 01:48:05;;;;;;;7.38;5.50;;;;;;;19.93;72.97;97109.00;5010232;28;20049;-65
2022/07/17 01:50:32;;;;;;;5.72;5.20;;;;;;;20.07;74.29;97175.44;5022650;28;20053;-65
2022/07/17 01:52:59;;;;;;;6.28;5.78;;;;;;;20.02;74.77;97184.38;5024742;28;20648;-66
2022/07/17 01:55:26;;;;;;;9.35;6.10;;;;;;;20.10;74.52;97180.19;5024502;28;20061;-65
2022/07/17 01:57:53;;;;;;;8.48;6.20;;;;;;;20.10;74.61;97191.44;5024472;28;20049;-66
2022/07/17 02:00:22;;;;;;;8.15;6.10;;;;;;;19.82;74.03;97146.97;5024291;28;20559;-65
2022/07/17 02:02:49;;;;;;;6.20;5.68;;;;;;;20.01;74.91;97188.41;5024489;28;20115;-57
2022/07/17 02:05:16;;;;;;;7.57;6.05;;;;;;;19.47;74.95;97112.63;5023875;28;20064;-58
2022/07/17 02:07:44;;;;;;;8.82;5.60;;;;;;;19.65;74.98;97136.84;5026829;28;20058;-61
2022/07/17 02:10:13;;;;;;;5.85;5.30;;;;;;;19.93;74.93;97193.38;5028214;28;20522;-66
2022/07/17 02:12:43;;;;;;;7.22;5.80;;;;;;;19.66;75.77;97183.38;5015555;28;20605;-57
2022/07/17 02:15:10;;;;;;;6.40;5.72;;;;;;;19.38;76.11;97146.09;5035876;28;20081;-62
2022/07/17 02:17:37;;;;;;;6.65;6.03;;;;;;;19.45;76.19;97179.69;5027890;28;20605;-66
2022/07/17 02:20:06;;;;;;;7.25;6.20;;;;;;;19.51;77.80;97203.28;5028153;28;20060;-65
2022/07/17 02:22:33;;;;;;;6.97;6.38;;;;;;;19.44;78.27;97205.41;5028163;28;20440;-58
2022/07/17 02:25:00;;;;;;;7.68;6.97;;;;;;;19.42;78.61;97207.84;5028410;28;20057;-58
2022/07/17 02:27:26;;;;;;;9.20;6.68;;;;;;;19.46;78.40;97202.94;5027611;28;20050;-58
2022/07/17 02:29:53;;;;;;;12.07;8.77;;;;;;;19.53;78.18;97206.47;5027851;28;20049;-57
2022/07/17 02:32:20;;;;;;;14.43;9.18;;;;;;;19.54;77.47;97210.06;5026458;28;20080;-65
2022/07/17 02:34:46;;;;;;;17.52;9.68;;;;;;;19.51;77.86;97208.91;5026462;28;20619;-60
2022/07/17 02:37:13;;;;;;;17.40;9.52;;;;;;;19.55;77.64;97204.00;5027497;28;20535;-59
2022/07/17 02:39:52;;;;;;;14.55;8.75;;;;;;;19.46;77.07;97200.94;5026342;28;20061;-66
2022/07/17 02:42:24;;;;;;;8.63;6.93;;;;;;;19.55;77.04;97206.81;5026513;28;20225;-66
2022/07/17 02:44:51;;;;;;;8.13;6.45;;;;;;;19.63;77.00;97203.91;5027698;28;20057;-59
2022/07/17 02:47:36;;;;;;;8.27;6.63;;;;;;;19.22;76.57;97131.84;5026187;28;20057;-58
2022/07/17 02:50:06;;;;;;;8.23;6.45;;;;;;;19.70;76.30;97215.03;4986624;28;20054;-58
2022/07/17 02:52:33;;;;;;;7.10;6.40;;;;;;;19.73;76.16;97212.16;4986971;28;20528;-61
2022/07/17 02:55:00;;;;;;;6.30;5.78;;;;;;;19.31;75.87;97146.22;4988221;28;20055;-68
2022/07/17 02:57:27;;;;;;;6.68;6.07;;;;;;;19.57;76.20;97197.97;4987580;28;20509;-56
2022/07/17 02:59:53;;;;;;;5.80;5.30;;;;;;;19.58;76.12;97201.56;4986844;28;20481;-60
2022/07/17 03:02:20;;;;;;;6.50;5.93;;;;;;;19.59;76.46;97223.63;4987728;28;20051;-66
2022/07/17 03:04:47;;;;;;;6.00;5.40;;;;;;;19.54;76.43;97222.09;4988043;28;20461;-66
2022/07/17 03:07:13;;;;;;;6.43;5.82;;;;;;;19.50;76.69;97227.00;4987991;28;20062;-66
2022/07/17 03:09:40;;;;;;;8.80;6.40;;;;;;;19.46;77.17;97220.63;4987601;28;20090;-58
2022/07/17 03:12:07;;;;;;;7.50;6.10;;;;;;;19.34;77.66;97218.41;4988120;28;20225;-59
2022/07/17 03:14:34;;;;;;;8.13;5.97;;;;;;;19.30;77.58;97206.41;4986294;28;20145;-57
2022/07/17 03:17:00;;;;;;;6.93;6.32;;;;;;;19.50;76.98;97227.00;4986283;28;20054;-65
2022/07/17 03:19:27;;;;;;;7.00;6.30;;;;;;;19.30;76.32;97194.41;4986943;28;20057;-65
2022/07/17 03:21:54;;;;;;;6.78;6.18;;;;;;;19.39;76.94;97231.16;4986249;28;20050;-67
2022/07/17 03:24:20;;;;;;;5.97;5.47;;;;;;;19.40;77.29;97227.94;4986130;28;20046;-59
2022/07/17 03:26:47;;;;;;;6.40;5.80;;;;;;;19.48;76.57;97235.03;4987146;28;20058;-61
2022/07/17 03:29:17;;;;;;;6.75;6.10;;;;;;;19.47;76.64;97227.81;4987350;28;20057;-59
2022/07/17 03:31:45;;;;;;;6.40;5.90;;;;;;;19.03;77.49;97188.69;4987731;28;20183;-65
2022/07/17 03:34:12;;;;;;;6.28;5.50;;;;;;;19.33;77.96;97222.41;4987184;28;20141;-64
2022/07/17 03:36:40;;;;;;;7.35;6.65;;;;;;;19.47;77.45;97222.19;4987409;28;20058;-60
2022/07/17 03:39:06;;;;;;;6.10;5.60;;;;;;;19.30;77.31;97189.53;4987556;28;20058;-57
2022/07/17 03:41:33;;;;;;;9.57;8.13;;;;;;;19.58;76.45;97228.44;4987224;28;20437;-65
2022/07/17 03:44:00;;;;;;;9.23;8.07;;;;;;;19.64;76.35;97222.34;5002271;28;20046;-66
2022/07/17 03:46:27;;;;;;;9.00;7.75;;;;;;;19.60;75.40;97210.38;4985829;28;20069;-66
2022/07/17 03:48:54;;;;;;;11.45;8.55;;;;;;;19.81;75.07;97229.72;5004133;28;20058;-58
2022/07/17 03:51:21;;;;;;;10.70;8.60;;;;;;;19.77;74.81;97218.53;5004730;28;20057;-61
2022/07/17 03:53:47;;;;;;;8.88;6.78;;;;;;;19.95;74.73;97230.28;5006680;28;20050;-58
2022/07/17 03:56:14;;;;;;;8.07;7.28;;;;;;;20.03;74.26;97225.34;5006296;28;20078;-58
2022/07/17 03:58:41;;;;;;;14.23;8.15;;;;;;;20.35;72.76;97231.22;5006458;28;20069;-66
2022/07/17 04:01:08;;;;;;;9.48;7.60;;;;;;;20.17;72.47;97197.00;5006383;28;20104;-67
2022/07/17 04:03:34;;;;;;;10.85;8.05;;;;;;;20.60;72.23;97225.91;5006212;28;20065;-65
2022/07/17 04:06:02;;;;;;;8.95;7.15;;;;;;;20.40;71.80;97191.31;5006305;28;20046;-66
2022/07/17 04:08:30;;;;;;;7.93;6.65;;;;;;;20.88;71.12;97242.25;5006361;28;20425;-58
2022/07/17 04:10:56;;;;;;;15.75;8.95;;;;;;;20.94;71.40;97252.56;5006043;28;20441;-58
2022/07/17 04:13:23;;;;;;;18.20;10.38;;;;;;;21.15;70.61;97245.72;5004918;28;20065;-66
2022/07/17 04:15:52;;;;;;;11.93;8.20;;;;;;;20.98;70.99;97230.78;5006027;28;20085;-66
2022/07/17 04:18:20;;;;;;;18.77;10.63;;;;;;;20.30;75.12;97246.56;5006481;28;20077;-66
2022/07/17 04:20:48;;;;;;;8.93;7.95;;;;;;;19.92;78.19;97264.06;5020955;28;20050;-65
2022/07/17 04:23:15;;;;;;;7.75;7.05;;;;;;;20.11;76.15;97226.78;5021336;28;20530;-66
2022/07/17 04:25:43;;;;;;;7.20;6.60;;;;;;;20.60;74.64;97260.50;5006115;28;20050;-59
2022/07/17 04:28:11;;;;;;;11.60;7.00;;;;;;;20.85;73.38;97260.00;5006060;28;20065;-66
2022/07/17 04:30:38;;;;;;;9.30;7.03;;;;;;;20.77;72.37;97231.19;5005026;28;20123;-60
2022/07/17 04:33:06;;;;;;;8.18;7.07;;;;;;;21.30;71.61;97263.94;5005780;28;20045;-66
2022/07/17 04:35:33;;;;;;;11.38;7.25;;;;;;;21.41;71.20;97272.16;5005731;28;20530;-66
2022/07/17 04:38:00;;;;;;;7.28;6.72;;;;;;;21.27;70.28;97236.63;5005976;28;20062;-58
2022/07/17 04:40:33;;;;;;;9.68;6.53;;;;;;;21.70;69.45;97276.75;5004375;28;20081;-58
2022/07/17 04:43:00;;;;;;;8.43;6.60;;;;;;;21.75;69.19;97267.75;5004187;28;20049;-66
2022/07/17 04:45:27;;;;;;;9.02;6.70;;;;;;;22.13;68.14;97282.97;5005441;28;20073;-66
2022/07/17 04:47:54;;;;;;;9.48;6.05;;;;;;;22.18;67.13;97285.25;5003095;28;20054;-66
2022/07/17 04:50:24;;;;;;;7.70;6.45;;;;;;;22.02;66.88;97225.22;5000154;28;20066;-65
2022/07/17 04:52:50;;;;;;;7.15;6.57;;;;;;;22.46;66.01;97264.00;5000842;28;20064;-65
2022/07/17 04:55:17;;;;;;;6.90;6.30;;;;;;;22.65;66.61;97287.72;4986034;28;20050;-66
2022/07/17 04:57:44;;;;;;;7.18;6.57;;;;;;;22.84;65.87;97276.28;5000663;28;20054;-66
2022/07/17 05:00:12;;;;;;;6.90;6.22;;;;;;;22.84;65.43;97269.88;5000585;28;20154;-66
2022/07/17 05:02:39;;;;;;;7.53;6.47;;;;;;;22.71;64.57;97204.03;5000975;28;20144;-66
2022/07/17 05:05:06;;;;;;;9.68;5.65;;;;;;;23.22;63.06;97280.03;5000502;28;20062;-66
2022/07/17 05:07:33;;;;;;;6.40;5.90;;;;;;;23.42;62.74;97277.09;5000427;28;20054;-66
2022/07/17 05:10:00;;;;;;;8.27;6.53;;;;;;;23.56;62.02;97283.13;4985873;28;20073;-66
2022/07/17 05:12:27;;;;;;;6.28;5.80;;;;;;;23.59;61.62;97267.25;4985369;28;20642;-59
2022/07/17 05:14:53;;;;;;;7.43;6.30;;;;;;;23.65;59.71;97246.47;4985180;28;20513;-66
2022/07/17 05:17:20;;;;;;;10.40;6.47;;;;;;;24.11;57.31;97284.63;4985593;28;20061;-58
2022/07/17 05:19:47;;;;;;;6.47;5.97;;;;;;;24.38;54.93;97279.28;4985250;28;20146;-59
2022/07/17 05:22:14;;;;;;;7.32;6.32;;;;;;;24.55;54.78;97280.72;5000270;28;20133;-67
2022/07/17 05:24:40;;;;;;;8.95;5.90;;;;;;;24.77;52.64;97281.59;5000070;28;20061;-60
2022/07/17 05:27:07;;;;;;;6.00;5.40;;;;;;;24.69;50.25;97246.25;4985427;28;20050;-66
2022/07/17 05:29:33;;;;;;;6.95;6.15;;;;;;;25.15;50.30;97273.72;4985267;28;20061;-59
2022/07/17 05:32:00;;;;;;;6.82;6.22;;;;;;;25.29;50.43;97286.63;4985198;28;20585;-59
2022/07/17 05:34:27;;;;;;;6.57;5.93;;;;;;;25.48;49.38;97287.56;4985258;28;20046;-67
2022/07/17 05:36:53;;;;;;;8.30;6.63;;;;;;;25.26;50.31;97228.75;4985785;28;20058;-59
2022/07/17 05:39:20;;;;;;;5.57;5.18;;;;;;;25.75;49.09;97271.47;4985257;28;20050;-66
2022/07/17 05:41:47;;;;;;;14.43;6.53;;;;;;;25.78;44.44;97247.81;4984936;28;20493;-67
2022/07/17 05:44:13;;;;;;;6.22;5.63;;;;;;;26.10;43.71;97263.59;4999934;28;20468;-66
2022/07/17 05:46:40;;;;;;;6.35;5.85;;;;;;;26.17;41.56;97257.66;4984657;28;20250;-59
2022/07/17 05:49:07;;;;;;;6.07;5.68;;;;;;;26.21;41.03;97275.31;4997015;28;20049;-59
2022/07/17 05:51:33;;;;;;;6.65;6.20;;;;;;;26.49;39.63;97274.16;5002543;28;20065;-66
2022/07/17 05:54:01;;;;;;;5.32;5.03;;;;;;;26.54;40.47;97271.47;5004675;28;20050;-59
2022/07/17 05:56:28;;;;;;;6.45;5.90;;;;;;;26.74;40.43;97279.59;5004715;28;20052;-65
2022/07/17 05:58:55;;;;;;;5.38;4.97;;;;;;;26.58;39.26;97220.97;5004804;28;20077;-68
2022/07/17 06:01:21;;;;;;;6.30;5.90;;;;;;;27.19;37.98;97288.16;5004673;28;20046;-66
2022/07/17 06:03:48;;;;;;;5.97;5.47;;;;;;;27.30;36.25;97274.25;5004451;28;20061;-59
2022/07/17 06:06:15;;;;;;;5.95;5.55;;;;;;;27.52;36.08;97276.94;5004529;28;20099;-66
2022/07/17 06:08:41;;;;;;;6.38;5.80;;;;;;;27.50;35.91;97263.19;5003939;28;20058;-67
2022/07/17 06:11:08;;;;;;;7.75;6.53;;;;;;;27.57;36.00;97271.38;5004457;28;20056;-59
2022/07/17 06:13:35;;;;;;;6.15;5.68;;;;;;;27.13;35.82;97221.78;5019278;28;20057;-67
2022/07/17 06:16:02;;;;;;;5.93;5.55;;;;;;;27.68;35.04;97271.66;5003999;28;20086;-59
2022/07/17 06:18:28;;;;;;;6.32;5.43;;;;;;;27.69;35.24;97247.66;5002988;28;20060;-67
2022/07/17 06:20:55;;;;;;;6.25;5.68;;;;;;;27.91;34.85;97259.63;5004296;28;20052;-58
2022/07/17 06:23:22;;;;;;;5.80;5.30;;;;;;;27.69;34.20;97270.44;5004445;28;20050;-59
2022/07/17 06:25:49;;;;;;;8.18;6.10;;;;;;;27.21;35.31;97262.88;5003881;28;20049;-67
2022/07/17 06:28:16;;;;;;;5.80;5.30;;;;;;;27.03;34.71;97264.94;5004486;28;20050;-66
2022/07/17 06:30:43;;;;;;;5.18;4.90;;;;;;;26.85;35.08;97251.50;5003618;28;20049;-58
2022/07/17 06:33:10;;;;;;;5.55;5.18;;;;;;;26.98;35.52;97255.00;5004712;28;20066;-59
2022/07/17 06:35:36;;;;;;;5.80;5.40;;;;;;;27.26;35.15;97270.81;5004188;28;20065;-61
2022/07/17 06:38:10;;;;;;;6.10;5.60;;;;;;;27.21;35.24;97273.44;5004161;28;20108;-60
2022/07/17 06:40:37;;;;;;;6.68;6.07;;;;;;;27.43;33.93;97263.50;5018517;28;20433;-59
2022/07/17 06:43:06;;;;;;;5.97;5.15;;;;;;;27.35;34.62;97250.88;5003879;28;20449;-60
2022/07/17 06:45:33;;;;;;;7.20;5.68;;;;;;;27.56;33.94;97272.66;5003897;28;20060;-65
2022/07/17 06:48:00;;;;;;;7.70;5.47;;;;;;;27.46;33.88;97273.94;5001295;28;20054;-58
2022/07/17 06:50:27;;;;;;;7.45;5.53;;;;;;;27.77;33.77;97282.25;4983998;28;20120;-66
2022/07/17 06:52:54;;;;;;;5.70;5.30;;;;;;;27.26;33.03;97236.66;4984796;28;20146;-58
2022/07/17 06:55:20;;;;;;;6.53;5.82;;;;;;;27.78;33.50;97281.78;4987771;28;20081;-66
2022/07/17 06:57:47;;;;;;;6.05;5.47;;;;;;;27.90;32.61;97269.41;4988261;28;20054;-66
2022/07/17 07:00:15;;;;;;;6.70;5.80;;;;;;;28.20;32.25;97286.72;4987883;28;20150;-60
2022/07/17 07:02:42;;;;;;;6.40;5.80;;;;;;;28.06;32.25;97271.91;4987750;28;20086;-66
2022/07/17 07:05:09;;;;;;;5.50;5.10;;;;;;;27.69;32.16;97187.84;4987056;28;20058;-65
2022/07/17 07:07:35;;;;;;;10.38;7.20;;;;;;;28.28;32.23;97285.09;5002427;28;20061;-58
2022/07/17 07:10:02;;;;;;;7.18;6.20;;;;;;;28.00;32.03;97228.25;4987340;28;20050;-58
2022/07/17 07:12:30;;;;;;;7.18;6.15;;;;;;;28.47;31.64;97261.72;4987701;28;20058;-58
2022/07/17 07:14:57;;;;;;;5.93;5.50;;;;;;;28.53;29.79;97288.34;4987431;28;20056;-66
2022/07/17 07:17:24;;;;;;;5.82;5.43;;;;;;;28.56;30.02;97332.19;5001910;28;20505;-65
2022/07/17 07:19:50;;;;;;;5.88;5.47;;;;;;;28.53;30.18;97287.53;4987377;28;20047;-67
2022/07/17 07:22:17;;;;;;;7.57;6.90;;;;;;;28.81;30.47;97268.97;4987377;28;20058;-66
2022/07/17 07:24:45;;;;;;;10.23;7.78;;;;;;;28.94;29.57;97280.94;4987715;28;20505;-67
2022/07/17 07:27:12;;;;;;;8.30;7.38;;;;;;;28.87;30.30;97276.38;4987666;28;20054;-66
2022/07/17 07:29:39;;;;;;;6.70;6.30;;;;;;;28.92;29.68;97269.22;4987264;28;20081;-60
2022/07/17 07:32:06;;;;;;;6.85;6.15;;;;;;;29.10;29.98;97286.25;5002031;28;20489;-66
2022/07/17 07:34:32;;;;;;;7.18;6.45;;;;;;;29.23;29.43;97289.59;4987594;28;20390;-66
2022/07/17 07:36:59;;;;;;;6.32;5.70;;;;;;;28.97;29.71;97255.09;4985841;28;20054;-58
2022/07/17 07:39:26;;;;;;;6.65;6.13;;;;;;;29.08;29.83;97288.78;4987182;28;20046;-60
2022/07/17 07:41:52;;;;;;;11.57;6.30;;;;;;;29.07;30.13;97296.53;4987224;28;20061;-68
2022/07/17 07:44:19;;;;;;;8.20;7.60;;;;;;;29.33;30.05;97305.38;4987076;28;20050;-58
2022/07/17 07:46:57;;;;;;;6.82;6.22;;;;;;;29.51;29.66;97310.94;4987428;28;20054;-58
2022/07/17 07:49:24;;;;;;;5.80;5.43;;;;;;;29.46;28.31;97308.75;4999547;28;20483;-66
2022/07/17 07:51:51;;;;;;;7.15;6.53;;;;;;;29.27;28.25;97255.97;5006312;28;20066;-59
2022/07/17 07:54:29;;;;;;;6.28;5.88;;;;;;;28.88;30.19;97302.84;5006620;28;20060;-58
2022/07/17 07:56:56;;;;;;;6.38;5.97;;;;;;;28.73;30.45;97291.38;5006142;28;20066;-61
2022/07/17 07:59:23;;;;;;;6.13;5.70;;;;;;;28.61;28.43;97231.75;5006221;28;20449;-57
2022/07/17 08:01:49;;;;;;;6.35;5.95;;;;;;;29.23;29.06;97307.53;5006404;28;20670;-65
2022/07/17 08:04:16;;;;;;;6.53;6.13;;;;;;;29.27;28.58;97284.50;5006760;28;20058;-65
2022/07/17 08:06:43;;;;;;;6.45;5.85;;;;;;;29.21;29.13;97321.47;5006564;28;20586;-60
2022/07/17 08:09:10;;;;;;;6.85;6.28;;;;;;;28.94;28.80;97318.03;5006702;28;20050;-60
2022/07/17 08:11:36;;;;;;;6.20;5.80;;;;;;;28.89;28.13;97315.84;5005751;28;20473;-65
2022/07/17 08:14:03;;;;;;;6.10;5.70;;;;;;;28.50;29.25;97265.72;5006539;28;20050;-60
2022/07/17 08:16:42;;;;;;;5.85;5.45;;;;;;;28.93;29.29;97339.25;5005917;28;20536;-60
2022/07/17 08:19:08;;;;;;;6.32;5.93;;;;;;;28.96;29.52;97341.16;5005050;28;20050;-69
2022/07/17 08:21:35;;;;;;;5.95;5.55;;;;;;;28.32;29.79;97299.97;5006139;28;20054;-65
2022/07/17 08:24:02;;;;;;;6.63;6.13;;;;;;;28.70;30.92;97337.19;5021624;28;20402;-60
2022/07/17 08:26:29;;;;;;;6.20;5.70;;;;;;;28.45;31.13;97327.00;5006296;28;20516;-57
2022/07/17 08:28:56;;;;;;;8.02;6.05;;;;;;;28.14;30.86;97243.84;5005985;28;20045;-64
2022/07/17 08:31:23;;;;;;;7.05;6.45;;;;;;;28.57;31.35;97302.41;5020650;28;20501;-65
2022/07/17 08:33:50;;;;;;;6.65;6.15;;;;;;;28.62;30.95;97313.94;5004098;28;20062;-58
2022/07/17 08:36:17;;;;;;;5.63;5.32;;;;;;;28.68;30.08;97323.41;5006081;28;20058;-61
2022/07/17 08:38:43;;;;;;;5.55;5.25;;;;;;;28.88;30.17;97342.78;5005766;28;20798;-58
2022/07/17 08:41:10;;;;;;;5.95;5.65;;;;;;;29.00;29.88;97304.66;5020601;28;20312;-65
2022/07/17 08:43:37;;;;;;;6.35;5.60;;;;;;;29.09;30.29;97341.72;5005949;28;20054;-59
2022/07/17 08:46:11;;;;;;;6.75;6.25;;;;;;;29.34;29.38;97344.06;5005819;28;20535;-64
2022/07/17 08:48:44;;;;;;;5.90;5.50;;;;;;;28.84;29.67;97313.63;4998891;28;20656;-58
2022/07/17 08:51:11;;;;;;;5.75;5.35;;;;;;;29.15;29.50;97340.56;4985861;28;20509;-57
2022/07/17 08:53:39;;;;;;;6.72;6.18;;;;;;;28.83;29.79;97312.88;4986057;28;20054;-58
2022/07/17 08:56:08;;;;;;;5.57;5.35;;;;;;;28.99;29.75;97343.03;5000416;28;20124;-57
2022/07/17 08:58:34;;;;;;;5.88;5.57;;;;;;;28.62;30.23;97301.75;5000738;28;20050;-59
2022/07/17 09:01:01;;;;;;;7.85;7.15;;;;;;;29.01;30.55;97331.91;4986193;28;20058;-63
2022/07/17 09:03:28;;;;;;;6.25;5.85;;;;;;;29.22;29.94;97350.81;4985110;28;20054;-63
2022/07/17 09:05:55;;;;;;;7.05;6.40;;;;;;;28.76;29.94;97286.75;4985821;28;20062;-59
2022/07/17 09:08:24;;;;;;;5.45;5.15;;;;;;;28.54;30.26;97351.84;4985760;28;20058;-59
2022/07/17 09:10:53;;;;;;;6.00;5.60;;;;;;;28.67;30.51;97327.53;4984241;28;20051;-63
2022/07/17 09:13:28;;;;;;;6.65;6.22;;;;;;;28.81;30.63;97331.72;4985327;28;20056;-63
2022/07/17 09:16:07;;;;;;;6.60;6.05;;;;;;;28.85;29.85;97350.25;4985111;28;20050;-63
2022/07/17 09:19:06;;;;;;;6.40;5.97;;;;;;;28.66;29.73;97342.28;4985154;28;20141;-60
2022/07/17 09:21:32;;;;;;;6.30;5.90;;;;;;;28.89;30.14;97332.94;4994202;28;20553;-63
2022/07/17 09:24:03;;;;;;;6.57;5.93;;;;;;;29.21;29.56;97332.13;4985393;28;20054;-63
2022/07/17 09:26:32;;;;;;;6.68;6.10;;;;;;;29.51;30.03;97333.78;4983801;28;20065;-60
2022/07/17 09:29:04;;;;;;;6.88;6.05;;;;;;;29.07;28.89;97292.94;4985067;28;20067;-63
2022/07/17 09:31:32;;;;;;;6.32;5.88;;;;;;;29.52;28.96;97341.06;4985455;28;20057;-62
2022/07/17 09:34:00;;;;;;;5.85;5.45;;;;;;;29.19;29.38;97289.81;4999710;28;20052;-63
2022/07/17 09:36:27;;;;;;;7.20;5.93;;;;;;;29.37;29.44;97334.53;4985230;28;20062;-60
2022/07/17 09:38:55;;;;;;;6.13;5.82;;;;;;;29.70;29.03;97357.28;5000197;28;20062;-59
2022/07/17 09:41:24;;;;;;;7.13;6.63;;;;;;;29.91;29.54;97351.19;4985286;28;20058;-63
2022/07/17 09:43:54;;;;;;;6.63;5.90;;;;;;;29.58;29.66;97356.22;4984112;28;20208;-59
2022/07/17 09:46:25;;;;;;;7.25;6.65;;;;;;;29.63;29.28;97358.41;4999761;28;20225;-59
2022/07/17 09:49:03;;;;;;;6.82;6.13;;;;;;;29.73;29.19;97357.09;4994050;28;20053;-64
2022/07/17 09:51:37;;;;;;;6.43;6.03;;;;;;;29.77;29.11;97346.25;5004053;28;20140;-59
2022/07/17 09:54:08;;;;;;;7.30;6.65;;;;;;;29.41;29.82;97352.25;5004245;28;20089;-59
2022/07/17 09:56:36;;;;;;;6.45;6.07;;;;;;;29.77;29.87;97357.69;5004427;28;20050;-59
2022/07/17 09:59:11;;;;;;;6.97;6.38;;;;;;;29.72;29.65;97352.66;5004214;28;20050;-64
2022/07/17 10:01:40;;;;;;;7.22;6.60;;;;;;;29.75;30.60;97356.59;5004899;28;20069;-63
2022/07/17 10:04:10;;;;;;;7.80;7.10;;;;;;;30.00;29.35;97342.53;5004249;28;20054;-59
2022/07/17 10:06:38;;;;;;;7.43;6.75;;;;;;;29.48;29.88;97306.22;5002624;28;20053;-59
2022/07/17 10:09:05;;;;;;;6.47;5.93;;;;;;;29.63;29.11;97355.56;5003906;28;20785;-63
2022/07/17 10:11:36;;;;;;;5.82;5.32;;;;;;;30.02;29.74;97350.63;5019239;28;20057;-64
2022/07/17 10:14:14;;;;;;;7.50;6.90;;;;;;;30.25;29.12;97341.97;5004414;28;20163;-63
2022/07/17 10:16:41;;;;;;;6.40;6.00;;;;;;;29.93;29.08;97276.41;5003810;28;20501;-62
2022/07/17 10:19:19;;;;;;;6.43;6.03;;;;;;;29.94;29.21;97332.28;5002808;28;20054;-60
2022/07/17 10:21:57;;;;;;;7.03;6.57;;;;;;;30.41;28.81;97332.88;5002439;28;20050;-63
2022/07/17 10:24:25;;;;;;;6.60;6.03;;;;;;;30.52;29.18;97324.47;5004058;28;20145;-62
2022/07/17 10:26:52;;;;;;;6.63;6.13;;;;;;;30.38;28.85;97333.84;5004054;28;20053;-64
2022/07/17 10:29:35;;;;;;;6.90;6.45;;;;;;;30.30;29.09;97335.56;5008007;28;20100;-59
2022/07/17 10:32:08;;;;;;;7.20;6.47;;;;;;;30.35;29.34;97334.84;5008251;28;20060;-64
2022/07/17 10:34:45;;;;;;;7.05;6.60;;;;;;;30.46;29.05;97323.59;5008072;28;20049;-60
2022/07/17 10:37:18;;;;;;;6.55;6.15;;;;;;;29.71;28.90;97285.38;4995907;28;20064;-59
2022/07/17 10:40:15;;;;;;;7.40;6.88;;;;;;;30.25;29.82;97319.09;4988159;28;20057;-60
2022/07/17 10:43:05;;;;;;;7.47;6.90;;;;;;;30.60;29.35;97307.69;4988802;28;20062;-59
2022/07/17 10:45:44;;;;;;;7.25;6.80;;;;;;;30.57;29.00;97306.59;4988361;28;20145;-59
2022/07/17 10:48:19;;;;;;;6.43;5.85;;;;;;;30.39;28.97;97346.09;4989940;28;20075;-59
2022/07/17 10:50:49;;;;;;;7.10;6.50;;;;;;;30.62;29.41;97325.91;5006146;28;20073;-60
2022/07/17 10:53:22;;;;;;;6.90;6.40;;;;;;;30.36;29.64;97244.94;5007997;28;20046;-64
2022/07/17 10:55:55;;;;;;;6.72;6.35;;;;;;;30.35;29.80;97305.47;5007852;28;20057;-63
2022/07/17 10:58:27;;;;;;;7.07;6.53;;;;;;;30.30;29.85;97304.13;5007435;28;20061;-59
2022/07/17 11:01:05;;;;;;;7.40;6.75;;;;;;;30.10;30.20;97314.66;5007689;28;20503;-59
2022/07/17 11:03:38;;;;;;;7.18;6.63;;;;;;;30.13;29.97;97300.13;5007522;28;20531;-60
2022/07/17 11:06:15;;;;;;;7.28;6.78;;;;;;;30.37;29.95;97283.66;5022558;28;20166;-64
2022/07/17 11:08:46;;;;;;;7.93;7.22;;;;;;;30.85;29.21;97304.97;5007960;28;20511;-64
2022/07/17 11:11:14;;;;;;;7.47;7.00;;;;;;;30.74;29.46;97298.28;5022438;28;20045;-59
2022/07/17 11:13:51;;;;;;;6.45;6.00;;;;;;;30.28;29.04;97235.19;5008126;28;20077;-59
2022/07/17 11:16:29;;;;;;;6.60;6.20;;;;;;;30.73;30.04;97274.59;5007603;28;20148;-65
2022/07/17 11:18:57;;;;;;;6.97;6.43;;;;;;;30.76;29.74;97290.78;5022170;28;20551;-64
2022/07/17 11:21:24;;;;;;;7.57;7.03;;;;;;;30.91;29.71;97302.16;5007429;28;20046;-59
2022/07/17 11:23:54;;;;;;;8.02;7.38;;;;;;;30.94;30.26;97284.78;5006983;28;20500;-63
2022/07/17 11:26:22;;;;;;;7.70;6.82;;;;;;;30.27;30.57;97212.81;5007691;28;20079;-59
2022/07/17 11:28:50;;;;;;;7.05;6.45;;;;;;;30.83;30.07;97278.94;5005992;28;20496;-64
2022/07/17 11:31:28;;;;;;;7.13;6.57;;;;;;;30.96;29.25;97275.72;5007404;28;20058;-63
2022/07/17 11:34:06;;;;;;;7.47;6.88;;;;;;;31.12;29.74;97262.91;5007660;28;20054;-59
2022/07/17 11:36:43;;;;;;;7.88;6.68;;;;;;;31.23;29.16;97271.63;5007290;28;20061;-63
2022/07/17 11:39:15;;;;;;;7.22;6.63;;;;;;;30.74;29.60;97261.88;5006604;28;20061;-58